createdAt,value
2023-02-27T00:00:15.239Z,101951.56
2023-02-27T00:02:43.853Z,101948.72
2023-02-27T00:05:11.288Z,101954.47
2023-02-27T00:07:38.307Z,101955.28
2023-02-27T00:10:05.513Z,101946.56
2023-02-27T00:12:37.912Z,101944.41
2023-02-27T00:15:06.100Z,101953.63
2023-02-27T00:17:32.806Z,101951.94
2023-02-27T00:19:59.777Z,101957.19
2023-02-27T00:22:26.841Z,101955.91
2023-02-27T00:24:53.828Z,101957.69
2023-02-27T00:27:20.854Z,101954.72
2023-02-27T00:29:50.862Z,101950.75
2023-02-27T00:32:20.254Z,101955.72
2023-02-27T00:34:46.926Z,101955.81
2023-02-27T00:37:13.665Z,101949.47
2023-02-27T00:39:40.251Z,101953.91
2023-02-27T00:42:07.085Z,101955.72
2023-02-27T00:44:33.754Z,101949.28
2023-02-27T00:47:00.385Z,101954.13
2023-02-27T00:49:27.036Z,101952.66
2023-02-27T00:51:53.884Z,101937.69
2023-02-27T00:54:20.646Z,101941.88
2023-02-27T00:56:47.260Z,101948.69
2023-02-27T00:59:14.040Z,101942.44
2023-02-27T01:01:41.516Z,101935.53
2023-02-27T01:04:08.469Z,101929.38
2023-02-27T01:06:35.269Z,101942.44
2023-02-27T01:09:04.178Z,101937.22
2023-02-27T01:11:31.312Z,101927.00
2023-02-27T01:13:57.956Z,101925.06
2023-02-27T01:16:27.292Z,101931.56
2023-02-27T01:18:54.236Z,101931.66
2023-02-27T01:21:21.935Z,101927.56
2023-02-27T01:23:48.936Z,101930.53
2023-02-27T01:26:15.789Z,101928.38
2023-02-27T01:28:42.520Z,101922.53
2023-02-27T01:31:09.481Z,101923.22
2023-02-27T01:33:36.367Z,101917.75
2023-02-27T01:36:03.317Z,101912.59
2023-02-27T01:38:30.122Z,101918.06
2023-02-27T01:41:00.786Z,101916.69
2023-02-27T01:43:28.125Z,101913.13
2023-02-27T01:45:55.000Z,101918.59
2023-02-27T01:48:31.760Z,101921.19
2023-02-27T01:51:03.626Z,101913.13
2023-02-27T01:53:31.375Z,101916.38
2023-02-27T01:56:02.886Z,101923.22
2023-02-27T01:58:29.912Z,101919.97
2023-02-27T02:00:57.327Z,101928.44
2023-02-27T02:03:38.144Z,101935.69
2023-02-27T02:06:06.184Z,101933.94
2023-02-27T02:08:37.431Z,101939.25
2023-02-27T02:11:05.729Z,101936.69
2023-02-27T02:13:33.511Z,101935.47
2023-02-27T02:16:15.378Z,101937.88
2023-02-27T02:18:48.335Z,101940.47
2023-02-27T02:21:40.703Z,101937.69
2023-02-27T02:24:50.819Z,101942.97
2023-02-27T02:27:42.545Z,101941.69
2023-02-27T02:30:24.059Z,101945.06
2023-02-27T02:33:05.664Z,101936.13
2023-02-27T02:35:57.246Z,101942.19
2023-02-27T02:38:45.213Z,101943.28
2023-02-27T02:41:33.530Z,101943.06
2023-02-27T02:44:03.049Z,101946.66
2023-02-27T02:47:06.324Z,101950.03
2023-02-27T02:49:44.698Z,101945.94
2023-02-27T02:52:27.226Z,101946.94
2023-02-27T02:55:05.751Z,101959.13
2023-02-27T02:57:44.031Z,101953.19
2023-02-27T03:00:17.440Z,101958.63
2023-02-27T03:02:48.261Z,101957.53
2023-02-27T03:05:19.202Z,101959.63
2023-02-27T03:07:57.130Z,101962.06
2023-02-27T03:10:31.758Z,101961.88
2023-02-27T03:13:18.586Z,101968.63
2023-02-27T03:15:53.145Z,101965.25
2023-02-27T03:18:24.656Z,101973.97
2023-02-27T03:21:00.366Z,101971.47
2023-02-27T03:23:37.878Z,101977.34
2023-02-27T03:26:05.229Z,101987.44
2023-02-27T03:28:35.493Z,101972.66
2023-02-27T03:31:21.299Z,101978.41
2023-02-27T03:34:01.446Z,101982.16
2023-02-27T03:36:47.704Z,101981.78
2023-02-27T03:39:45.317Z,101985.03
2023-02-27T03:42:37.954Z,101989.41
2023-02-27T03:45:07.548Z,101998.91
2023-02-27T03:47:34.606Z,101992.44
2023-02-27T03:50:01.232Z,101999.78
2023-02-27T03:52:29.790Z,102005.59
2023-02-27T03:55:10.375Z,101999.78
2023-02-27T03:57:37.951Z,102006.97
2023-02-27T04:00:06.476Z,102000.59
2023-02-27T04:02:33.572Z,102012.13
2023-02-27T04:05:00.225Z,102011.22
2023-02-27T04:07:34.840Z,102017.03
2023-02-27T04:10:21.390Z,102018.19
2023-02-27T04:12:53.713Z,102021.78
2023-02-27T04:15:47.778Z,102026.59
2023-02-27T04:18:18.644Z,102016.72
2023-02-27T04:20:50.245Z,102017.97
2023-02-27T04:23:27.982Z,102028.81
2023-02-27T04:26:25.627Z,102029.06
2023-02-27T04:29:06.261Z,102030.06
2023-02-27T04:31:32.877Z,102029.16
2023-02-27T04:34:10.332Z,102029.84
2023-02-27T04:36:45.147Z,102028.16
2023-02-27T04:39:24.246Z,102024.59
2023-02-27T04:41:57.882Z,102029.75
2023-02-27T04:44:25.344Z,102024.47
2023-02-27T04:46:52.807Z,102031.19
2023-02-27T04:49:33.391Z,102031.19
2023-02-27T04:52:07.259Z,102030.91
2023-02-27T04:55:05.446Z,102029.09
2023-02-27T04:57:41.249Z,102024.06
2023-02-27T05:00:11.860Z,102030.56
2023-02-27T05:02:42.952Z,102021.63
2023-02-27T05:05:13.738Z,102023.22
2023-02-27T05:07:47.740Z,102027.91
2023-02-27T05:10:22.106Z,102029.94
2023-02-27T05:12:52.640Z,102031.81
2023-02-27T05:15:32.823Z,102038.44
2023-02-27T05:18:02.993Z,102039.66
2023-02-27T05:21:08.638Z,102040.91
2023-02-27T05:23:48.775Z,102040.00
2023-02-27T05:26:23.720Z,102050.16
2023-02-27T05:29:06.065Z,102045.69
2023-02-27T05:31:37.420Z,102042.59
2023-02-27T05:34:14.324Z,102056.47
2023-02-27T05:36:57.287Z,102060.81
2023-02-27T05:39:27.137Z,102056.56
2023-02-27T05:42:00.968Z,102051.19
2023-02-27T05:44:43.645Z,102058.50
2023-02-27T05:47:13.190Z,102069.53
2023-02-27T05:49:43.425Z,102089.84
2023-02-27T05:52:12.721Z,102082.44
2023-02-27T05:54:48.268Z,102089.84
2023-02-27T05:57:19.985Z,102088.38
2023-02-27T05:59:52.839Z,102084.56
2023-02-27T06:02:19.643Z,102072.59
2023-02-27T06:04:46.286Z,102077.28
2023-02-27T06:07:16.064Z,102091.50
2023-02-27T06:09:44.011Z,102099.63
2023-02-27T06:12:10.639Z,102113.69
2023-02-27T06:14:37.220Z,102115.19
2023-02-27T06:17:03.900Z,102124.78
2023-02-27T06:19:30.537Z,102126.00
2023-02-27T06:21:57.144Z,102131.72
2023-02-27T06:24:23.736Z,102121.41
2023-02-27T06:26:50.353Z,102123.97
2023-02-27T06:29:17.502Z,102124.97
2023-02-27T06:31:44.177Z,102127.09
2023-02-27T06:34:10.893Z,102125.44
2023-02-27T06:36:37.580Z,102136.22
2023-02-27T06:39:04.943Z,102131.16
2023-02-27T06:41:31.548Z,102138.38
2023-02-27T06:43:58.173Z,102131.72
2023-02-27T06:46:25.440Z,102134.41
2023-02-27T06:48:52.180Z,102133.91
2023-02-27T06:51:18.859Z,102140.66
2023-02-27T06:53:45.477Z,102146.22
2023-02-27T06:56:12.110Z,102146.31
2023-02-27T06:58:38.709Z,102145.22
2023-02-27T07:01:05.408Z,102151.28
2023-02-27T07:03:32.127Z,102152.75
2023-02-27T07:05:59.185Z,102155.84
2023-02-27T07:08:26.141Z,102155.44
2023-02-27T07:10:52.882Z,102155.16
2023-02-27T07:13:19.985Z,102160.53
2023-02-27T07:15:46.926Z,102160.78
2023-02-27T07:18:13.770Z,102168.22
2023-02-27T07:20:40.548Z,102162.03
2023-02-27T07:23:07.486Z,102159.16
2023-02-27T07:25:34.229Z,102161.22
2023-02-27T07:28:00.862Z,102161.81
2023-02-27T07:30:27.504Z,102165.50
2023-02-27T07:32:54.115Z,102167.91
2023-02-27T07:35:20.725Z,102174.63
2023-02-27T07:37:47.769Z,102172.00
2023-02-27T07:40:14.874Z,102166.97
2023-02-27T07:42:41.552Z,102178.91
2023-02-27T07:45:08.972Z,102177.78
2023-02-27T07:47:36.016Z,102167.09
2023-02-27T07:50:03.786Z,102175.47
2023-02-27T07:52:32.026Z,102182.72
2023-02-27T07:54:58.689Z,102176.44
2023-02-27T07:57:25.707Z,102180.19
2023-02-27T07:59:52.318Z,102179.56
2023-02-27T08:02:19.108Z,102180.88
2023-02-27T08:04:45.837Z,102176.38
2023-02-27T08:07:12.524Z,102178.53
2023-02-27T08:09:39.149Z,102183.47
2023-02-27T08:12:05.849Z,102176.88
2023-02-27T08:14:32.499Z,102177.38
2023-02-27T08:17:00.425Z,102176.81
2023-02-27T08:19:27.369Z,102179.66
2023-02-27T08:21:54.149Z,102184.34
2023-02-27T08:24:20.779Z,102183.81
2023-02-27T08:26:47.680Z,102200.66
2023-02-27T08:29:16.874Z,102194.31
2023-02-27T08:31:43.809Z,102191.88
2023-02-27T08:34:10.985Z,102191.34
2023-02-27T08:36:38.043Z,102189.31
2023-02-27T08:39:05.834Z,102185.41
2023-02-27T08:41:32.464Z,102181.53
2023-02-27T08:43:59.335Z,102188.59
2023-02-27T08:46:26.780Z,102195.78
2023-02-27T08:48:53.981Z,102191.31
2023-02-27T08:51:21.535Z,102204.66
2023-02-27T08:53:48.169Z,102214.16
2023-02-27T08:56:14.771Z,102209.13
2023-02-27T08:58:41.434Z,102206.31
2023-02-27T09:01:08.134Z,102210.06
2023-02-27T09:03:34.849Z,102217.44
2023-02-27T09:06:01.487Z,102204.97
2023-02-27T09:08:28.170Z,102224.53
2023-02-27T09:10:58.171Z,102219.56
2023-02-27T09:13:24.878Z,102214.84
2023-02-27T09:15:51.532Z,102219.56
2023-02-27T09:18:18.172Z,102221.75
2023-02-27T09:20:44.901Z,102221.31
2023-02-27T09:23:11.654Z,102222.78
2023-02-27T09:25:38.337Z,102222.56
2023-02-27T09:28:05.134Z,102229.91
2023-02-27T09:30:31.790Z,102229.09
2023-02-27T09:32:58.433Z,102230.88
2023-02-27T09:35:25.603Z,102219.19
2023-02-27T09:37:52.276Z,102232.22
2023-02-27T09:40:30.516Z,102227.44
2023-02-27T09:43:01.361Z,102226.38
2023-02-27T09:45:30.178Z,102237.13
2023-02-27T09:48:30.221Z,102228.97
2023-02-27T09:50:57.414Z,102233.28
2023-02-27T09:53:33.508Z,102238.09
2023-02-27T09:56:41.730Z,102240.44
2023-02-27T09:59:46.058Z,102248.69
2023-02-27T10:02:31.314Z,102246.91
2023-02-27T10:05:19.738Z,102250.06
2023-02-27T10:08:12.224Z,102247.47
2023-02-27T10:11:00.180Z,102247.19
2023-02-27T10:13:42.895Z,102251.41
2023-02-27T10:16:12.628Z,102244.31
2023-02-27T10:18:55.214Z,102245.41
2023-02-27T10:21:31.388Z,102245.84
2023-02-27T10:24:10.837Z,102248.88
2023-02-27T10:26:40.961Z,102244.41
2023-02-27T10:29:27.627Z,102248.28
2023-02-27T10:32:01.414Z,102250.63
2023-02-27T10:34:29.985Z,102246.72
2023-02-27T10:36:58.976Z,102243.50
2023-02-27T10:39:26.473Z,102249.59
2023-02-27T10:41:53.256Z,102244.47
2023-02-27T10:44:20.152Z,102246.50
2023-02-27T10:46:49.565Z,102246.16
2023-02-27T10:49:22.282Z,102239.03
2023-02-27T10:52:12.517Z,102247.94
2023-02-27T10:54:39.981Z,102243.31
2023-02-27T10:57:20.158Z,102250.25
2023-02-27T10:59:59.136Z,102237.03
2023-02-27T11:02:31.630Z,102239.28
2023-02-27T11:04:59.861Z,102248.31
2023-02-27T11:07:35.460Z,102232.34
2023-02-27T11:10:17.999Z,102235.88
2023-02-27T11:13:21.571Z,102241.22
2023-02-27T11:16:05.317Z,102236.72
2023-02-27T11:18:32.485Z,102236.38
2023-02-27T11:21:23.047Z,102238.22
2023-02-27T11:23:55.833Z,102239.41
2023-02-27T11:26:36.331Z,102232.88
2023-02-27T11:29:23.333Z,102235.66
2023-02-27T11:31:56.017Z,102231.41
2023-02-27T11:34:26.656Z,102233.03
2023-02-27T11:36:56.984Z,102233.69
2023-02-27T11:40:02.094Z,102236.81
2023-02-27T11:42:31.627Z,102244.03
2023-02-27T11:45:01.832Z,102244.63
2023-02-27T11:47:34.636Z,102244.34
2023-02-27T11:50:04.728Z,102244.72
2023-02-27T11:53:03.169Z,102243.19
2023-02-27T11:55:30.188Z,102235.50
2023-02-27T11:58:05.261Z,102239.13
2023-02-27T12:00:36.999Z,102244.16
2023-02-27T12:03:42.409Z,102242.28
2023-02-27T12:06:20.886Z,102242.84
2023-02-27T12:08:52.301Z,102249.47
2023-02-27T12:11:28.230Z,102235.16
2023-02-27T12:14:01.995Z,102235.16
2023-02-27T12:16:46.747Z,102230.75
2023-02-27T12:19:25.336Z,102234.81
2023-02-27T12:22:22.358Z,102232.25
2023-02-27T12:25:02.960Z,102238.88
2023-02-27T12:27:43.922Z,102236.03
2023-02-27T12:30:16.887Z,102240.38
2023-02-27T12:32:51.986Z,102237.66
2023-02-27T12:35:27.095Z,102233.44
2023-02-27T12:37:53.842Z,102236.47
2023-02-27T12:40:35.148Z,102237.88
2023-02-27T12:43:26.272Z,102237.69
2023-02-27T12:46:43.984Z,102232.81
2023-02-27T12:49:14.858Z,102230.97
2023-02-27T12:51:59.606Z,102238.44
2023-02-27T12:54:35.981Z,102238.25
2023-02-27T12:57:28.284Z,102237.41
2023-02-27T13:00:09.406Z,102241.63
2023-02-27T13:02:45.306Z,102241.19
2023-02-27T13:05:27.028Z,102240.22
2023-02-27T13:07:59.236Z,102235.25
2023-02-27T13:10:34.553Z,102234.81
2023-02-27T13:13:09.671Z,102237.59
2023-02-27T13:15:42.393Z,102236.66
2023-02-27T13:18:33.885Z,102228.09
2023-02-27T13:21:12.896Z,102234.06
2023-02-27T13:24:38.397Z,102231.66
2023-02-27T13:27:12.753Z,102232.38
2023-02-27T13:29:40.002Z,102231.63
2023-02-27T13:32:36.514Z,102228.47
2023-02-27T13:35:21.762Z,102229.44
2023-02-27T13:37:52.673Z,102238.75
2023-02-27T13:40:40.038Z,102229.16
2023-02-27T13:43:30.361Z,102230.63
2023-02-27T13:46:01.991Z,102231.03
2023-02-27T13:48:42.015Z,102226.94
2023-02-27T13:51:11.393Z,102228.81
2023-02-27T13:53:38.319Z,102229.25
2023-02-27T13:56:22.821Z,102239.44
2023-02-27T13:58:50.354Z,102227.59
2023-02-27T14:01:27.291Z,102239.44
2023-02-27T14:03:56.713Z,102233.13
2023-02-27T14:06:25.194Z,102230.69
2023-02-27T14:08:55.698Z,102232.66
2023-02-27T14:11:34.398Z,102235.91
2023-02-27T14:14:03.382Z,102235.78
2023-02-27T14:16:39.117Z,102236.19
2023-02-27T14:19:22.686Z,102230.69
2023-02-27T14:21:49.954Z,102241.78
2023-02-27T14:24:18.937Z,102243.53
2023-02-27T14:26:46.697Z,102235.16
2023-02-27T14:29:23.476Z,102234.53
2023-02-27T14:31:51.771Z,102239.41
2023-02-27T14:34:21.330Z,102234.56
2023-02-27T14:36:53.155Z,102233.19
2023-02-27T14:39:30.552Z,102240.28
2023-02-27T14:42:12.847Z,102244.81
2023-02-27T14:44:43.671Z,102234.78
2023-02-27T14:47:19.065Z,102235.16
2023-02-27T14:49:47.311Z,102246.66
2023-02-27T14:52:20.640Z,102243.16
2023-02-27T14:54:48.612Z,102250.91
2023-02-27T14:57:25.749Z,102250.81
2023-02-27T14:59:54.343Z,102247.44
2023-02-27T15:02:24.871Z,102254.97
2023-02-27T15:05:15.864Z,102254.66
2023-02-27T15:07:46.295Z,102254.22
2023-02-27T15:10:24.703Z,102253.75
2023-02-27T15:12:52.389Z,102251.84
2023-02-27T15:15:21.249Z,102257.00
2023-02-27T15:17:47.978Z,102263.72
2023-02-27T15:20:30.190Z,102260.75
2023-02-27T15:23:01.785Z,102268.91
2023-02-27T15:25:37.354Z,102264.16
2023-02-27T15:28:20.512Z,102267.66
2023-02-27T15:30:51.743Z,102262.88
2023-02-27T15:33:18.729Z,102258.03
2023-02-27T15:35:46.177Z,102268.06
2023-02-27T15:38:35.342Z,102262.25
2023-02-27T15:41:03.476Z,102263.63
2023-02-27T15:43:30.701Z,102272.88
2023-02-27T15:45:58.311Z,102271.13
2023-02-27T15:48:25.546Z,102270.66
2023-02-27T15:50:58.047Z,102271.66
2023-02-27T15:53:29.890Z,102278.41
2023-02-27T15:55:59.399Z,102275.63
2023-02-27T15:58:29.016Z,102276.34
2023-02-27T16:01:00.979Z,102283.63
2023-02-27T16:03:33.084Z,102276.38
2023-02-27T16:06:00.168Z,102281.47
2023-02-27T16:08:28.278Z,102274.59
2023-02-27T16:10:55.005Z,102283.47
2023-02-27T16:13:25.485Z,102287.63
2023-02-27T16:16:00.552Z,102293.56
2023-02-27T16:18:32.016Z,102289.84
2023-02-27T16:21:15.652Z,102294.41
2023-02-27T16:23:42.983Z,102308.13
2023-02-27T16:26:26.934Z,102304.28
2023-02-27T16:29:03.808Z,102296.13
2023-02-27T16:31:35.959Z,102306.41
2023-02-27T16:34:45.064Z,102312.28
2023-02-27T16:37:23.704Z,102308.00
2023-02-27T16:39:52.161Z,102315.28
2023-02-27T16:42:18.876Z,102306.16
2023-02-27T16:44:45.534Z,102309.75
2023-02-27T16:47:12.638Z,102309.38
2023-02-27T16:49:40.522Z,102303.31
2023-02-27T16:52:11.293Z,102306.72
2023-02-27T16:54:38.288Z,102311.47
2023-02-27T16:57:05.086Z,102307.28
2023-02-27T16:59:36.662Z,102310.25
2023-02-27T17:02:05.595Z,102313.72
2023-02-27T17:04:32.514Z,102320.97
2023-02-27T17:07:00.832Z,102321.88
2023-02-27T17:09:28.343Z,102329.47
2023-02-27T17:11:56.151Z,102325.78
2023-02-27T17:14:23.344Z,102326.75
2023-02-27T17:16:49.996Z,102329.00
2023-02-27T17:19:16.628Z,102342.50
2023-02-27T17:21:43.305Z,102338.97
2023-02-27T17:24:09.906Z,102343.03
2023-02-27T17:26:36.676Z,102338.91
2023-02-27T17:29:04.026Z,102338.19
2023-02-27T17:31:31.110Z,102342.38
2023-02-27T17:33:57.714Z,102342.78
2023-02-27T17:36:24.347Z,102337.50
2023-02-27T17:38:58.304Z,102347.38
2023-02-27T17:41:24.957Z,102345.19
2023-02-27T17:43:56.116Z,102341.44
2023-02-27T17:46:24.100Z,102349.59
2023-02-27T17:48:50.829Z,102354.47
2023-02-27T17:51:18.575Z,102356.41
2023-02-27T17:53:45.355Z,102348.56
2023-02-27T17:56:12.918Z,102352.41
2023-02-27T17:58:40.038Z,102354.50
2023-02-27T18:01:12.676Z,102346.56
2023-02-27T18:03:39.557Z,102341.63
2023-02-27T18:06:07.175Z,102352.50
2023-02-27T18:08:33.992Z,102350.97
2023-02-27T18:11:01.186Z,102353.38
2023-02-27T18:13:28.440Z,102359.38
2023-02-27T18:15:55.929Z,102356.16
2023-02-27T18:18:23.253Z,102359.38
2023-02-27T18:21:01.194Z,102361.09
2023-02-27T18:23:28.005Z,102363.59
2023-02-27T18:25:58.681Z,102360.47
2023-02-27T18:28:26.318Z,102363.91
2023-02-27T18:30:53.010Z,102370.25
2023-02-27T18:33:19.735Z,102366.94
2023-02-27T18:35:46.933Z,102365.44
2023-02-27T18:38:13.575Z,102372.84
2023-02-27T18:40:40.463Z,102376.59
2023-02-27T18:43:07.678Z,102371.66
2023-02-27T18:45:34.649Z,102373.56
2023-02-27T18:48:01.246Z,102386.19
2023-02-27T18:50:28.162Z,102388.72
2023-02-27T18:52:56.156Z,102386.03
2023-02-27T18:55:22.816Z,102389.44
2023-02-27T18:57:52.864Z,102382.56
2023-02-27T19:00:27.533Z,102382.03
2023-02-27T19:02:54.589Z,102384.09
2023-02-27T19:05:21.896Z,102382.22
2023-02-27T19:07:49.073Z,102386.03
2023-02-27T19:10:16.311Z,102381.66
2023-02-27T19:12:43.083Z,102379.88
2023-02-27T19:15:11.143Z,102383.09
2023-02-27T19:17:43.017Z,102390.16
2023-02-27T19:20:14.358Z,102388.06
2023-02-27T19:22:47.013Z,102391.63
2023-02-27T19:25:13.613Z,102399.50
2023-02-27T19:27:40.584Z,102391.34
2023-02-27T19:30:08.463Z,102394.72
2023-02-27T19:32:35.340Z,102393.13
2023-02-27T19:35:01.938Z,102394.53
2023-02-27T19:37:28.574Z,102392.81
2023-02-27T19:39:55.186Z,102403.16
2023-02-27T19:42:22.093Z,102407.44
2023-02-27T19:44:48.927Z,102404.94
2023-02-27T19:47:15.600Z,102408.34
2023-02-27T19:49:42.544Z,102409.81
2023-02-27T19:52:10.355Z,102411.81
2023-02-27T19:54:37.603Z,102407.34
2023-02-27T19:57:13.594Z,102420.28
2023-02-27T19:59:45.309Z,102403.22
2023-02-27T20:02:12.046Z,102403.31
2023-02-27T20:04:42.136Z,102410.78
2023-02-27T20:07:14.794Z,102412.19
2023-02-27T20:09:41.577Z,102417.25
2023-02-27T20:12:09.514Z,102414.56
2023-02-27T20:14:36.716Z,102417.16
2023-02-27T20:17:03.557Z,102415.28
2023-02-27T20:19:30.404Z,102414.91
2023-02-27T20:21:57.554Z,102416.69
2023-02-27T20:24:27.434Z,102419.38
2023-02-27T20:26:54.639Z,102422.66
2023-02-27T20:29:23.541Z,102413.94
2023-02-27T20:31:51.383Z,102416.59
2023-02-27T20:34:21.945Z,102418.91
2023-02-27T20:36:53.749Z,102417.09
2023-02-27T20:39:21.380Z,102422.81
2023-02-27T20:41:48.818Z,102430.03
2023-02-27T20:44:15.475Z,102422.28
2023-02-27T20:46:43.030Z,102422.09
2023-02-27T20:49:12.568Z,102426.47
2023-02-27T20:51:40.060Z,102426.84
2023-02-27T20:54:09.024Z,102421.59
2023-02-27T20:56:38.321Z,102425.56
2023-02-27T20:59:06.933Z,102426.19
2023-02-27T21:01:33.900Z,102421.13
2023-02-27T21:04:01.306Z,102426.69
2023-02-27T21:06:28.218Z,102424.19
2023-02-27T21:08:56.581Z,102428.13
2023-02-27T21:11:27.566Z,102426.13
2023-02-27T21:13:56.066Z,102430.88
2023-02-27T21:16:24.369Z,102433.97
2023-02-27T21:18:52.298Z,102432.66
2023-02-27T21:21:22.946Z,102432.50
2023-02-27T21:23:50.191Z,102432.00
2023-02-27T21:26:20.525Z,102437.47
2023-02-27T21:29:00.293Z,102437.47
2023-02-27T21:31:29.210Z,102441.84
2023-02-27T21:33:56.244Z,102430.91
2023-02-27T21:36:32.576Z,102431.22
2023-02-27T21:39:02.050Z,102428.03
2023-02-27T21:41:29.171Z,102423.34
2023-02-27T21:44:00.471Z,102430.78
2023-02-27T21:46:28.112Z,102434.19
2023-02-27T21:48:55.601Z,102428.63
2023-02-27T21:51:37.060Z,102435.19
2023-02-27T21:54:06.837Z,102430.72
2023-02-27T21:56:34.087Z,102432.00
2023-02-27T21:59:04.448Z,102431.31
2023-02-27T22:01:31.782Z,102426.25
2023-02-27T22:03:59.727Z,102436.69
2023-02-27T22:06:28.315Z,102430.00
2023-02-27T22:08:56.307Z,102424.47
2023-02-27T22:11:25.696Z,102433.91
2023-02-27T22:13:52.662Z,102432.50
2023-02-27T22:16:19.681Z,102431.78
2023-02-27T22:18:47.682Z,102440.41
2023-02-27T22:21:21.177Z,102436.84
2023-02-27T22:23:48.084Z,102436.44
2023-02-27T22:26:20.698Z,102435.34
2023-02-27T22:28:47.611Z,102441.72
2023-02-27T22:31:19.773Z,102446.00
2023-02-27T22:33:48.559Z,102436.06
2023-02-27T22:36:20.302Z,102443.09
2023-02-27T22:38:48.153Z,102448.16
2023-02-27T22:41:20.585Z,102436.66
2023-02-27T22:43:47.566Z,102442.91
2023-02-27T22:46:17.329Z,102432.56
2023-02-27T22:48:44.434Z,102444.91
2023-02-27T22:51:14.523Z,102443.78
2023-02-27T22:53:46.013Z,102437.72
2023-02-27T22:56:14.266Z,102442.31
2023-02-27T22:58:41.948Z,102448.13
2023-02-27T23:01:13.116Z,102444.38
2023-02-27T23:03:45.129Z,102451.88
2023-02-27T23:06:14.705Z,102444.66
2023-02-27T23:08:42.383Z,102448.94
2023-02-27T23:11:10.581Z,102459.41
2023-02-27T23:13:40.926Z,102454.16
2023-02-27T23:16:11.715Z,102459.63
2023-02-27T23:18:48.861Z,102450.81
2023-02-27T23:21:17.619Z,102463.59
2023-02-27T23:23:44.759Z,102462.69
2023-02-27T23:26:12.241Z,102460.56
2023-02-27T23:28:39.360Z,102461.19
2023-02-27T23:31:07.498Z,102460.22
2023-02-27T23:33:39.878Z,102465.03
2023-02-27T23:36:09.134Z,102459.34
2023-02-27T23:38:35.915Z,102465.00
2023-02-27T23:41:09.606Z,102463.75
2023-02-27T23:43:57.229Z,102468.38
2023-02-27T23:46:23.906Z,102478.94
2023-02-27T23:48:52.815Z,102477.59
2023-02-27T23:51:19.473Z,102477.59
2023-02-27T23:53:46.060Z,102471.09
2023-02-27T23:56:18.220Z,102476.94
2023-02-27T23:58:45.721Z,102470.22
